Time;durP1;ratioP1;P1;durP2;ratioP2;P2;SDS_P1;SDS_P2;PMS_P1;PMS_P2;Temp;Humidity;BMP_temperature;BMP_pressure;BME280_temperature;BME280_humidity;BME280_pressure;Samples;Min_cycle;Max_cycle;Signal;HPM_P1;HPM_P2
2023/05/22 00:00:15;;;;;;;16.00;14.57;;;16.40;99.90;;;;;;5033174;28;20198;-70
2023/05/22 00:02:42;;;;;;;17.13;15.63;;;16.40;99.90;;;;;;5035334;28;20178;-70
2023/05/22 00:05:09;;;;;;;15.73;14.43;;;16.40;99.90;;;;;;5035184;28;20456;-70
2023/05/22 00:07:35;;;;;;;14.73;13.43;;;16.30;99.90;;;;;;5035075;28;20417;-70
2023/05/22 00:10:00;;;;;;;17.03;15.43;;;16.30;99.90;;;;;;5034612;28;20622;-71
2023/05/22 00:12:26;;;;;;;17.87;16.33;;;16.30;99.90;;;;;;5035020;28;20182;-70
2023/05/22 00:14:52;;;;;;;18.43;16.57;;;16.20;99.90;;;;;;5034960;28;20257;-70
2023/05/22 00:17:17;;;;;;;17.40;15.90;;;16.50;99.90;;;;;;5035035;28;20667;-70
2023/05/22 00:19:43;;;;;;;18.33;16.63;;;16.10;99.90;;;;;;5034528;28;20198;-70
2023/05/22 00:22:09;;;;;;;17.43;15.23;;;16.10;99.90;;;;;;5035107;28;20202;-71
2023/05/22 00:24:34;;;;;;;19.60;17.27;;;16.00;99.90;;;;;;5034803;28;20174;-70
2023/05/22 00:27:00;;;;;;;16.77;15.13;;;16.10;99.90;;;;;;5034597;28;20185;-70
2023/05/22 00:29:25;;;;;;;18.33;16.50;;;16.00;99.90;;;;;;5034319;28;20194;-70
2023/05/22 00:31:51;;;;;;;16.07;14.77;;;16.10;99.90;;;;;;5034637;28;20182;-70
2023/05/22 00:34:16;;;;;;;17.20;15.70;;;16.00;99.90;;;;;;5034796;28;20201;-70
2023/05/22 00:36:42;;;;;;;20.67;18.77;;;16.00;99.90;;;;;;5034503;28;20690;-70
2023/05/22 00:39:08;;;;;;;19.43;17.63;;;15.90;99.90;;;;;;5034111;28;20190;-71
2023/05/22 00:41:34;;;;;;;18.13;16.53;;;15.90;99.90;;;;;;5034351;28;20174;-70
2023/05/22 00:44:00;;;;;;;17.03;15.50;;;15.80;99.90;;;;;;5034375;28;20421;-70
2023/05/22 00:46:25;;;;;;;19.77;18.00;;;15.80;99.90;;;;;;5034583;28;20198;-70
2023/05/22 00:48:51;;;;;;;17.83;16.33;;;15.90;99.90;;;;;;5034092;28;20440;-70
2023/05/22 00:51:19;;;;;;;24.60;17.83;;;15.90;99.90;;;;;;5034354;28;20185;-70
2023/05/22 00:53:46;;;;;;;18.17;15.90;;;15.90;99.90;;;;;;5034234;28;20186;-70
2023/05/22 00:56:13;;;;;;;18.87;17.20;;;15.80;99.90;;;;;;5034079;28;20528;-70
2023/05/22 00:58:40;;;;;;;18.37;16.77;;;15.80;99.90;;;;;;5033908;28;20983;-70
2023/05/22 01:01:08;;;;;;;18.77;16.97;;;15.70;99.90;;;;;;5034002;28;20420;-70
2023/05/22 01:03:36;;;;;;;18.73;16.97;;;15.70;99.90;;;;;;5034088;28;20428;-71
2023/05/22 01:06:02;;;;;;;18.27;16.47;;;15.70;99.90;;;;;;5034018;28;20791;-71
2023/05/22 01:08:27;;;;;;;17.33;15.77;;;15.70;99.90;;;;;;5033516;28;20453;-70
2023/05/22 01:11:03;;;;;;;18.50;16.90;;;15.70;99.90;;;;;;5033515;28;20525;-71
2023/05/22 01:13:50;;;;;;;19.30;17.50;;;15.60;99.90;;;;;;5033890;28;20182;-70
2023/05/22 01:16:58;;;;;;;17.10;15.50;;;15.60;99.90;;;;;;5033882;28;20421;-70
2023/05/22 01:19:35;;;;;;;17.83;16.23;;;15.60;99.90;;;;;;4972180;28;20462;-70
2023/05/22 01:22:20;;;;;;;17.00;15.50;;;15.60;99.90;;;;;;5028781;28;20432;-70
2023/05/22 01:24:58;;;;;;;18.73;17.03;;;15.60;99.90;;;;;;5032338;28;20461;-71
2023/05/22 01:27:38;;;;;;;19.30;17.50;;;15.60;99.90;;;;;;5033695;28;20503;-71
2023/05/22 01:30:31;;;;;;;17.97;16.40;;;15.50;99.90;;;;;;5033451;28;20459;-70
2023/05/22 01:32:57;;;;;;;17.80;16.20;;;15.50;99.90;;;;;;5033496;28;20938;-70
2023/05/22 01:35:24;;;;;;;17.80;16.20;;;15.40;99.90;;;;;;5033446;28;20859;-70
2023/05/22 01:37:50;;;;;;;18.40;16.77;;;15.40;99.90;;;;;;5033296;28;20464;-70
2023/05/22 01:40:17;;;;;;;20.33;17.43;;;15.30;99.90;;;;;;5032971;28;20920;-70
2023/05/22 01:42:42;;;;;;;18.47;16.77;;;15.30;99.90;;;;;;5033319;28;20482;-71
2023/05/22 01:45:10;;;;;;;17.93;16.03;;;15.30;99.90;;;;;;5033301;28;20421;-71
2023/05/22 01:47:36;;;;;;;17.53;15.73;;;15.20;99.90;;;;;;5033215;28;20553;-70
2023/05/22 01:50:02;;;;;;;18.00;16.30;;;15.20;99.90;;;;;;5032890;28;20432;-71
2023/05/22 01:52:40;;;;;;;18.63;17.03;;;15.20;99.90;;;;;;5033196;28;20187;-70
2023/05/22 01:55:16;;;;;;;17.93;16.23;;;15.20;99.90;;;;;;5033090;28;20417;-71
2023/05/22 01:57:50;;;;;;;17.97;16.27;;;15.20;99.90;;;;;;5032997;28;20506;-70
2023/05/22 02:00:17;;;;;;;19.57;17.40;;;15.20;99.90;;;;;;5032676;28;20440;-70
2023/05/22 02:02:57;;;;;;;18.23;16.73;;;15.20;99.90;;;;;;5032840;28;20949;-70
2023/05/22 02:05:25;;;;;;;19.20;17.50;;;15.20;99.90;;;;;;5032926;28;20991;-70
2023/05/22 02:07:53;;;;;;;19.33;17.53;;;15.20;99.90;;;;;;5032768;28;20433;-71
2023/05/22 02:10:20;;;;;;;19.27;17.37;;;15.20;99.90;;;;;;5032305;28;20461;-70
2023/05/22 02:12:46;;;;;;;19.97;18.07;;;15.20;99.90;;;;;;5032748;28;20425;-70
2023/05/22 02:15:11;;;;;;;18.13;16.43;;;15.10;99.90;;;;;;5032715;28;20432;-71
2023/05/22 02:17:41;;;;;;;16.77;15.27;;;15.10;99.90;;;;;;5032495;28;20202;-71
2023/05/22 02:20:16;;;;;;;17.53;15.93;;;15.10;99.90;;;;;;5032283;28;20297;-71
2023/05/22 02:22:43;;;;;;;18.97;17.17;;;15.10;99.90;;;;;;5032136;28;20414;-70
2023/05/22 02:25:13;;;;;;;18.67;16.87;;;15.10;99.90;;;;;;5032497;28;20536;-71
2023/05/22 02:27:40;;;;;;;18.50;16.73;;;15.20;99.90;;;;;;5032589;28;20421;-71
2023/05/22 02:30:07;;;;;;;18.77;17.17;;;15.20;99.90;;;;;;5032059;28;20444;-71
2023/05/22 02:32:32;;;;;;;19.33;17.63;;;15.30;99.90;;;;;;5032337;28;20452;-71
2023/05/22 02:34:58;;;;;;;17.83;16.13;;;15.30;99.90;;;;;;5032551;28;20457;-71
2023/05/22 02:37:23;;;;;;;19.03;17.23;;;15.40;99.90;;;;;;5032337;28;20205;-70
2023/05/22 02:39:49;;;;;;;17.07;15.57;;;15.30;99.90;;;;;;5032012;28;20205;-71
2023/05/22 02:42:14;;;;;;;18.40;16.80;;;15.30;99.90;;;;;;5032284;28;20253;-71
2023/05/22 02:44:40;;;;;;;18.83;17.10;;;15.30;99.90;;;;;;5032291;28;20188;-71
2023/05/22 02:47:05;;;;;;;18.23;16.50;;;15.30;99.90;;;;;;5032238;28;20170;-70
2023/05/22 02:49:31;;;;;;;19.83;17.87;;;15.30;99.90;;;;;;5032061;28;20241;-70
2023/05/22 02:51:56;;;;;;;21.90;18.10;;;15.30;99.90;;;;;;5032150;28;20174;-71
2023/05/22 02:54:22;;;;;;;19.77;17.77;;;15.40;99.90;;;;;;5032066;28;20170;-70
2023/05/22 02:56:47;;;;;;;21.30;17.20;;;15.40;99.90;;;;;;5032002;28;20233;-71
2023/05/22 02:59:13;;;;;;;17.93;16.33;;;15.40;99.90;;;;;;5031740;28;20205;-71
2023/05/22 03:01:38;;;;;;;19.83;17.87;;;15.40;99.90;;;;;;5031915;28;20220;-71
2023/05/22 03:04:05;;;;;;;17.50;15.87;;;15.50;99.90;;;;;;5032040;28;20683;-71
2023/05/22 03:06:31;;;;;;;18.03;16.47;;;15.40;99.90;;;;;;5031968;28;20652;-70
2023/05/22 03:08:56;;;;;;;17.60;16.07;;;15.40;99.90;;;;;;5031546;28;20437;-70
2023/05/22 03:11:22;;;;;;;17.63;16.03;;;15.50;99.90;;;;;;5031912;28;20719;-71
2023/05/22 03:13:47;;;;;;;20.33;18.33;;;15.50;99.90;;;;;;5031993;28;20198;-71
2023/05/22 03:16:13;;;;;;;20.40;18.60;;;15.50;99.90;;;;;;5031714;28;20185;-71
2023/05/22 03:18:38;;;;;;;17.97;16.33;;;15.50;99.90;;;;;;5031571;28;20217;-71
2023/05/22 03:21:04;;;;;;;18.73;16.83;;;15.40;99.90;;;;;;5031850;28;20273;-71
2023/05/22 03:23:30;;;;;;;18.57;16.83;;;15.40;99.90;;;;;;5031811;28;20171;-70
2023/05/22 03:25:56;;;;;;;18.40;16.60;;;15.40;99.90;;;;;;5031825;28;20170;-71
2023/05/22 03:28:21;;;;;;;19.33;17.73;;;15.30;99.90;;;;;;5031525;28;20431;-71
2023/05/22 03:30:47;;;;;;;18.97;17.33;;;15.20;99.90;;;;;;5031575;28;20197;-71
2023/05/22 03:33:12;;;;;;;20.50;18.70;;;15.20;99.90;;;;;;5032324;28;20643;-70
2023/05/22 03:35:38;;;;;;;19.97;18.07;;;15.30;99.90;;;;;;5035700;28;20171;-70
2023/05/22 03:38:03;;;;;;;19.63;17.57;;;15.30;99.90;;;;;;5035488;28;20206;-70
2023/05/22 03:40:29;;;;;;;20.20;18.47;;;15.30;99.90;;;;;;5035294;28;20679;-71
2023/05/22 03:42:54;;;;;;;20.43;18.43;;;15.40;99.90;;;;;;5035625;28;20228;-70
2023/05/22 03:45:20;;;;;;;20.33;18.57;;;15.40;99.90;;;;;;5035415;28;20205;-71
2023/05/22 03:47:46;;;;;;;20.27;18.27;;;15.40;99.90;;;;;;5035481;28;20175;-71
2023/05/22 03:50:11;;;;;;;19.97;17.80;;;15.40;99.90;;;;;;5035329;28;20194;-71
2023/05/22 03:52:37;;;;;;;18.00;16.40;;;15.40;99.90;;;;;;5035426;28;20281;-70
2023/05/22 03:55:03;;;;;;;18.80;16.90;;;15.50;99.90;;;;;;5035295;28;20170;-71
2023/05/22 03:57:29;;;;;;;19.43;17.63;;;15.40;99.90;;;;;;5035205;28;20976;-71
2023/05/22 03:59:54;;;;;;;19.33;17.60;;;15.50;99.90;;;;;;5034828;28;20428;-71
2023/05/22 04:02:20;;;;;;;18.90;17.20;;;15.50;99.90;;;;;;5033947;28;20253;-71
2023/05/22 04:04:47;;;;;;;19.40;17.70;;;15.40;99.90;;;;;;5035185;28;20167;-71
2023/05/22 04:07:12;;;;;;;19.07;17.27;;;15.40;99.90;;;;;;5035082;28;20301;-71
2023/05/22 04:09:38;;;;;;;20.53;18.63;;;15.30;99.90;;;;;;5034604;28;21013;-71
2023/05/22 04:12:05;;;;;;;19.57;17.77;;;15.20;99.90;;;;;;5035116;28;20201;-71
2023/05/22 04:14:31;;;;;;;20.13;17.87;;;15.20;99.90;;;;;;5034923;28;20420;-71
2023/05/22 04:16:57;;;;;;;21.00;18.80;;;15.20;99.90;;;;;;5034928;28;20452;-71
2023/05/22 04:19:23;;;;;;;21.13;19.13;;;15.10;99.90;;;;;;5034511;28;20803;-71
2023/05/22 04:21:48;;;;;;;18.17;16.53;;;15.20;99.90;;;;;;5034757;28;20425;-71
2023/05/22 04:24:14;;;;;;;19.23;17.33;;;15.10;99.90;;;;;;5034771;28;20170;-71
2023/05/22 04:26:39;;;;;;;20.93;18.90;;;15.20;99.90;;;;;;5034786;28;20178;-71
2023/05/22 04:29:09;;;;;;;23.07;19.67;;;15.20;99.90;;;;;;5034583;28;20224;-71
2023/05/22 04:31:35;;;;;;;18.60;17.00;;;15.20;99.90;;;;;;5034590;28;20178;-71
2023/05/22 04:34:01;;;;;;;20.23;18.33;;;15.20;99.90;;;;;;5034609;28;20488;-71
2023/05/22 04:36:27;;;;;;;20.70;18.53;;;15.30;99.90;;;;;;5034543;28;20977;-71
2023/05/22 04:38:54;;;;;;;19.10;17.20;;;15.40;99.90;;;;;;5034207;28;20527;-71
2023/05/22 04:41:21;;;;;;;20.37;18.63;;;15.60;99.90;;;;;;5034448;28;20421;-71
2023/05/22 04:43:47;;;;;;;18.77;17.07;;;15.90;99.90;;;;;;5034425;28;20428;-71
2023/05/22 04:46:14;;;;;;;18.87;17.17;;;16.10;99.90;;;;;;5033752;28;20420;-71
2023/05/22 04:48:40;;;;;;;18.80;17.10;;;16.30;99.90;;;;;;5034154;28;20420;-71
2023/05/22 04:51:05;;;;;;;18.87;17.07;;;16.50;99.90;;;;;;5034320;28;20531;-71
2023/05/22 04:53:32;;;;;;;18.47;16.87;;;16.60;99.90;;;;;;5034297;28;20982;-71
2023/05/22 04:55:58;;;;;;;18.63;16.83;;;16.70;99.90;;;;;;5034197;28;20163;-71
2023/05/22 04:58:26;;;;;;;18.37;16.57;;;16.90;99.90;;;;;;5033650;28;20453;-71
2023/05/22 05:00:52;;;;;;;18.27;16.47;;;17.00;99.90;;;;;;5034135;28;20421;-71
2023/05/22 05:03:18;;;;;;;18.00;16.50;;;17.10;99.90;;;;;;5034167;28;20903;-71
2023/05/22 05:05:44;;;;;;;19.53;17.53;;;17.20;99.90;;;;;;5034016;28;20417;-71
2023/05/22 05:08:10;;;;;;;17.93;16.23;;;17.30;99.90;;;;;;5033846;28;20523;-71
2023/05/22 05:10:36;;;;;;;18.60;16.83;;;17.50;99.90;;;;;;5034088;28;20461;-73
2023/05/22 05:13:01;;;;;;;18.00;16.37;;;17.60;99.90;;;;;;5033895;28;21272;-73
2023/05/22 05:15:28;;;;;;;18.37;16.77;;;17.70;99.90;;;;;;5033866;28;20639;-71
2023/05/22 05:17:53;;;;;;;18.57;16.90;;;17.80;99.90;;;;;;5033673;28;20225;-72
2023/05/22 05:20:19;;;;;;;19.10;17.20;;;17.90;99.90;;;;;;5033412;28;20895;-71
2023/05/22 05:22:45;;;;;;;19.23;17.20;;;18.00;99.90;;;;;;5033815;28;20721;-72
2023/05/22 05:25:11;;;;;;;22.20;18.27;;;18.00;99.90;;;;;;5033692;28;20204;-72
2023/05/22 05:27:36;;;;;;;19.73;17.83;;;18.00;99.90;;;;;;5033615;28;20181;-72
2023/05/22 05:30:03;;;;;;;19.83;17.73;;;17.80;99.90;;;;;;5033267;28;20445;-72
2023/05/22 05:32:29;;;;;;;18.80;17.10;;;17.70;99.90;;;;;;5033600;28;20166;-72
2023/05/22 05:34:55;;;;;;;19.13;17.40;;;17.80;99.90;;;;;;5033538;28;20421;-72
2023/05/22 05:37:21;;;;;;;18.67;17.10;;;17.80;99.90;;;;;;5033349;28;20457;-71
2023/05/22 05:39:46;;;;;;;19.80;18.10;;;17.80;99.90;;;;;;5033028;28;20490;-72
2023/05/22 05:42:12;;;;;;;20.53;18.43;;;17.90;99.90;;;;;;5033280;28;20471;-73
2023/05/22 05:44:37;;;;;;;19.13;17.23;;;17.90;99.90;;;;;;5033290;28;20220;-72
2023/05/22 05:47:04;;;;;;;20.43;18.43;;;18.00;99.90;;;;;;5033398;28;20181;-73
2023/05/22 05:49:29;;;;;;;19.50;17.63;;;18.20;99.90;;;;;;5032771;28;20198;-73
2023/05/22 05:51:55;;;;;;;18.57;16.73;;;18.50;99.90;;;;;;5033167;28;20420;-73
2023/05/22 05:54:21;;;;;;;18.17;16.57;;;18.80;99.90;;;;;;5032884;28;20593;-72
2023/05/22 05:56:46;;;;;;;19.10;17.20;;;19.10;99.90;;;;;;5032165;28;20206;-72
2023/05/22 05:59:12;;;;;;;17.93;16.33;;;19.30;99.90;;;;;;5032582;28;20325;-73
2023/05/22 06:01:43;;;;;;;17.70;15.90;;;19.60;99.90;;;;;;5033027;28;20166;-73
2023/05/22 06:04:08;;;;;;;17.43;15.83;;;19.70;99.90;;;;;;5032980;28;20171;-73
2023/05/22 06:06:35;;;;;;;17.53;16.00;;;19.70;99.90;;;;;;5032876;28;20787;-73
2023/05/22 06:09:07;;;;;;;18.17;16.50;;;19.70;99.90;;;;;;5032398;28;20233;-73
2023/05/22 06:11:33;;;;;;;18.67;16.83;;;19.80;99.90;;;;;;5032795;28;20825;-73
2023/05/22 06:13:59;;;;;;;17.87;16.37;;;19.90;99.90;;;;;;5032656;28;20420;-73
2023/05/22 06:16:25;;;;;;;18.10;15.90;;;20.00;99.90;;;;;;5032696;28;20299;-73
2023/05/22 06:18:51;;;;;;;15.63;14.20;;;20.30;99.90;;;;;;5032196;28;20433;-73
2023/05/22 06:21:19;;;;;;;15.70;14.30;;;20.60;99.90;;;;;;5032608;28;20162;-73
2023/05/22 06:23:46;;;;;;;15.13;13.93;;;20.80;99.90;;;;;;5032540;28;20470;-73
2023/05/22 06:26:11;;;;;;;17.17;15.67;;;21.00;99.90;;;;;;5032556;28;20935;-72
2023/05/22 06:28:37;;;;;;;16.60;15.27;;;21.20;99.90;;;;;;5032158;28;20421;-73
2023/05/22 06:31:02;;;;;;;15.50;14.30;;;21.30;99.90;;;;;;5032500;28;20316;-73
2023/05/22 06:33:28;;;;;;;15.87;14.37;;;21.50;99.90;;;;;;5032365;28;20167;-73
2023/05/22 06:35:54;;;;;;;14.07;12.73;;;21.70;99.90;;;;;;5032481;28;20288;-73
2023/05/22 06:38:19;;;;;;;13.10;11.83;;;21.90;99.90;;;;;;5030747;28;20205;-73
2023/05/22 06:40:45;;;;;;;14.47;13.17;;;22.00;99.90;;;;;;5032241;28;20436;-73
2023/05/22 06:43:11;;;;;;;15.83;14.50;;;22.00;99.90;;;;;;5032431;28;20166;-73
2023/05/22 06:45:37;;;;;;;15.60;14.30;;;22.00;99.90;;;;;;5032262;28;20173;-74
2023/05/22 06:48:02;;;;;;;16.60;14.90;;;22.00;99.90;;;;;;5032176;28;20253;-74
2023/05/22 06:50:29;;;;;;;14.80;13.50;;;22.10;99.90;;;;;;5031858;28;20491;-74
2023/05/22 06:52:55;;;;;;;14.83;13.63;;;22.30;99.90;;;;;;5032186;28;20208;-73
2023/05/22 06:55:21;;;;;;;15.80;14.50;;;22.60;99.90;;;;;;5032111;28;20420;-73
2023/05/22 06:57:46;;;;;;;14.27;13.07;;;22.70;99.90;;;;;;5032044;28;20807;-73
2023/05/22 07:00:13;;;;;;;15.13;13.77;;;23.00;99.90;;;;;;5031724;28;20535;-73
2023/05/22 07:02:39;;;;;;;15.13;13.90;;;22.90;99.90;;;;;;5031935;28;20174;-73
2023/05/22 07:05:04;;;;;;;16.20;14.37;;;23.20;99.90;;;;;;5031987;28;20922;-73
2023/05/22 07:07:31;;;;;;;15.83;14.43;;;23.60;99.90;;;;;;5031884;28;20253;-72
2023/05/22 07:09:56;;;;;;;14.70;13.30;;;24.00;99.90;;;;;;5031284;28;20555;-74
2023/05/22 07:12:24;;;;;;;14.23;12.70;;;24.30;99.90;;;;;;5031919;28;20192;-74
2023/05/22 07:14:51;;;;;;;15.27;14.07;;;24.50;99.90;;;;;;5031999;28;20258;-74
2023/05/22 07:17:19;;;;;;;17.03;15.37;;;24.50;99.90;;;;;;5032211;28;20453;-74
2023/05/22 07:19:45;;;;;;;14.93;13.73;;;24.50;99.90;;;;;;5031584;28;20437;-74
2023/05/22 07:22:10;;;;;;;15.90;14.40;;;24.70;99.90;;;;;;5031828;28;20423;-74
2023/05/22 07:24:36;;;;;;;15.37;14.03;;;25.00;99.90;;;;;;5031811;28;20158;-73
2023/05/22 07:27:03;;;;;;;14.83;13.67;;;25.20;99.90;;;;;;5031849;28;20265;-74
2023/05/22 07:29:28;;;;;;;15.73;14.27;;;24.80;99.90;;;;;;5031460;28;20190;-73
2023/05/22 07:31:54;;;;;;;16.53;15.03;;;24.00;99.90;;;;;;5031715;28;20436;-74
2023/05/22 07:34:21;;;;;;;15.77;14.20;;;23.40;99.90;;;;;;5031824;28;20171;-73
2023/05/22 07:36:46;;;;;;;14.83;13.40;;;23.00;99.90;;;;;;5031665;28;20712;-74
2023/05/22 07:39:12;;;;;;;14.57;13.37;;;23.10;99.90;;;;;;5031494;28;20515;-73
2023/05/22 07:41:38;;;;;;;14.37;12.97;;;23.30;99.90;;;;;;5031707;28;20632;-73
2023/05/22 07:44:03;;;;;;;13.90;12.60;;;23.60;99.90;;;;;;5031737;28;20467;-72
2023/05/22 07:46:29;;;;;;;15.90;14.60;;;23.80;99.90;;;;;;5031648;28;20245;-73
2023/05/22 07:48:55;;;;;;;14.53;13.30;;;24.10;99.90;;;;;;5029914;28;20197;-73
2023/05/22 07:51:20;;;;;;;13.50;12.40;;;24.30;99.90;;;;;;5031657;28;20165;-73
2023/05/22 07:53:46;;;;;;;18.10;15.07;;;24.30;99.90;;;;;;5031563;28;20170;-73
2023/05/22 07:56:12;;;;;;;14.67;13.37;;;23.90;99.90;;;;;;5031583;28;20177;-73
2023/05/22 07:58:38;;;;;;;21.90;20.07;;;23.70;99.90;;;;;;5031219;28;20167;-73
2023/05/22 08:01:05;;;;;;;15.53;14.23;;;23.90;99.90;;;;;;5031512;28;20417;-73
2023/05/22 08:03:31;;;;;;;14.77;13.47;;;23.70;99.90;;;;;;5031430;28;20826;-73
2023/05/22 08:05:57;;;;;;;14.53;13.23;;;23.20;99.90;;;;;;5031676;28;20424;-73
2023/05/22 08:08:22;;;;;;;15.33;14.03;;;22.70;99.90;;;;;;5031140;28;20181;-73
2023/05/22 08:10:48;;;;;;;17.27;14.73;;;22.60;99.90;;;;;;5031221;28;20456;-73
2023/05/22 08:13:15;;;;;;;13.80;12.43;;;22.30;99.90;;;;;;5031480;28;20198;-73
2023/05/22 08:15:41;;;;;;;14.30;13.13;;;22.20;99.90;;;;;;5031355;28;20205;-74
2023/05/22 08:18:06;;;;;;;15.47;14.07;;;22.30;99.90;;;;;;5031109;28;20461;-71
2023/05/22 08:20:32;;;;;;;14.70;13.30;;;22.10;99.90;;;;;;5032029;28;20201;-73
2023/05/22 08:22:58;;;;;;;14.83;13.60;;;22.20;99.90;;;;;;5034853;28;20174;-73
2023/05/22 08:25:23;;;;;;;14.17;12.87;;;22.30;99.90;;;;;;5034838;28;20178;-72
2023/05/22 08:27:49;;;;;;;15.63;14.07;;;22.20;99.90;;;;;;5034841;28;20174;-73
2023/05/22 08:30:14;;;;;;;14.87;13.60;;;22.30;99.90;;;;;;5034284;28;20702;-73
2023/05/22 08:32:40;;;;;;;15.40;13.80;;;22.40;99.90;;;;;;5034567;28;20635;-72
2023/05/22 08:35:06;;;;;;;15.67;14.33;;;22.40;99.90;;;;;;5034624;28;20515;-71
2023/05/22 08:37:32;;;;;;;15.67;14.33;;;22.60;99.90;;;;;;5034545;28;20252;-73
2023/05/22 08:39:57;;;;;;;15.90;14.40;;;22.70;99.90;;;;;;5034171;28;20433;-73
2023/05/22 08:42:23;;;;;;;15.47;14.07;;;23.00;99.90;;;;;;5034545;28;20219;-73
2023/05/22 08:44:49;;;;;;;15.50;14.10;;;23.20;99.90;;;;;;5034429;28;20183;-72
2023/05/22 08:47:15;;;;;;;15.00;13.50;;;23.40;99.90;;;;;;5034397;28;20174;-71
2023/05/22 08:49:41;;;;;;;16.03;14.33;;;23.80;99.90;;;;;;5033996;28;20437;-73
2023/05/22 08:52:17;;;;;;;15.53;13.87;;;23.90;99.90;;;;;;5034422;28;20170;-74
2023/05/22 08:54:50;;;;;;;14.60;13.50;;;24.00;99.90;;;;;;5034318;28;20906;-74
2023/05/22 08:57:18;;;;;;;15.13;13.80;;;24.40;99.90;;;;;;5034216;28;20472;-73
2023/05/22 08:59:44;;;;;;;14.87;13.57;;;24.70;99.90;;;;;;5033683;28;20437;-74
2023/05/22 09:02:12;;;;;;;15.03;13.47;;;25.10;99.90;;;;;;5034075;28;20435;-74
2023/05/22 09:04:40;;;;;;;13.00;11.90;;;25.40;99.90;;;;;;5034125;28;20444;-73
2023/05/22 09:07:05;;;;;;;14.63;13.10;;;25.40;99.90;;;;;;5034030;28;20432;-74
2023/05/22 09:09:36;;;;;;;14.70;13.30;;;25.40;99.90;;;;;;5033530;28;20456;-73
2023/05/22 09:12:01;;;;;;;14.70;13.40;;;25.50;99.90;;;;;;5034156;28;20228;-73
2023/05/22 09:14:27;;;;;;;14.30;12.90;;;25.80;99.90;;;;;;5033831;28;20428;-74
2023/05/22 09:16:55;;;;;;;13.30;12.10;;;26.50;99.90;;;;;;5033748;28;20213;-74
2023/05/22 09:19:21;;;;;;;13.77;12.40;;;26.80;99.90;;;;;;5033507;28;20244;-74
2023/05/22 09:21:46;;;;;;;15.30;13.93;;;27.50;99.90;;;;;;5033751;28;20413;-74
2023/05/22 09:24:12;;;;;;;13.67;12.00;;;27.80;99.90;;;;;;5033710;28;20547;-74
2023/05/22 09:26:38;;;;;;;13.37;12.37;;;28.10;99.90;;;;;;5033674;28;20186;-74
2023/05/22 09:29:07;;;;;;;14.20;13.10;;;28.10;99.90;;;;;;5033146;28;20240;-74
2023/05/22 09:31:40;;;;;;;16.10;14.50;;;28.50;99.90;;;;;;5033494;28;20515;-74
2023/05/22 09:34:07;;;;;;;14.33;13.20;;;29.20;99.90;;;;;;5033576;28;20432;-73
2023/05/22 09:36:34;;;;;;;14.87;13.57;;;29.60;99.90;;;;;;5033487;28;20428;-74
2023/05/22 09:39:01;;;;;;;15.93;14.33;;;29.10;99.90;;;;;;5033094;28;20490;-74
2023/05/22 09:41:29;;;;;;;14.23;13.20;;;29.10;99.90;;;;;;5033357;28;20515;-74
2023/05/22 09:43:54;;;;;;;14.10;12.87;;;29.50;99.90;;;;;;5033356;28;20531;-74
2023/05/22 09:46:20;;;;;;;14.50;13.27;;;30.00;99.90;;;;;;5033394;28;20926;-73
2023/05/22 09:48:51;;;;;;;15.23;13.87;;;29.20;99.90;;;;;;5032900;28;20190;-74
2023/05/22 09:51:22;;;;;;;13.73;12.40;;;28.40;99.90;;;;;;5033258;28;20775;-72
2023/05/22 09:53:50;;;;;;;14.90;13.80;;;28.90;99.90;;;;;;5033115;28;20444;-74
2023/05/22 09:56:17;;;;;;;14.13;12.83;;;28.80;99.90;;;;;;5033000;28;20915;-74
2023/05/22 09:58:46;;;;;;;15.20;14.00;;;29.60;99.90;;;;;;5032704;28;20491;-74
2023/05/22 10:01:14;;;;;;;18.53;16.97;;;30.80;99.90;;;;;;5032932;28;20416;-73
2023/05/22 10:03:41;;;;;;;13.67;12.47;;;31.80;99.50;;;;;;5032896;28;20942;-73
2023/05/22 10:06:10;;;;;;;13.83;12.40;;;31.00;97.80;;;;;;5032628;28;20419;-74
2023/05/22 10:08:42;;;;;;;13.77;12.63;;;31.40;98.60;;;;;;5032488;28;20420;-74
2023/05/22 10:11:09;;;;;;;16.40;12.93;;;33.10;94.90;;;;;;5032792;28;20811;-73
2023/05/22 10:13:36;;;;;;;13.53;12.40;;;33.60;90.30;;;;;;5032669;28;20442;-72
2023/05/22 10:16:03;;;;;;;14.63;13.43;;;34.20;87.80;;;;;;5032599;28;20447;-72
2023/05/22 10:18:29;;;;;;;13.50;12.40;;;34.50;84.00;;;;;;5032126;28;21114;-72
2023/05/22 10:20:56;;;;;;;13.43;12.17;;;35.10;80.40;;;;;;5032816;28;20421;-73
2023/05/22 10:23:23;;;;;;;14.23;13.10;;;32.60;81.10;;;;;;5032622;28;20469;-74
2023/05/22 10:25:49;;;;;;;14.03;12.90;;;32.60;83.90;;;;;;5032604;28;20413;-74
2023/05/22 10:28:29;;;;;;;13.93;12.63;;;34.60;81.50;;;;;;5032201;28;20448;-74
2023/05/22 10:31:07;;;;;;;13.47;12.17;;;35.80;73.40;;;;;;5032552;28;20867;-74
2023/05/22 10:33:41;;;;;;;12.97;11.97;;;37.00;67.40;;;;;;5032490;28;20421;-71
2023/05/22 10:36:18;;;;;;;13.70;12.60;;;36.90;66.90;;;;;;5032476;28;20997;-70
2023/05/22 10:39:05;;;;;;;14.23;13.23;;;34.70;69.10;;;;;;5032002;28;20510;-71
2023/05/22 10:41:30;;;;;;;13.90;12.87;;;34.90;69.70;;;;;;5032249;28;20469;-72
2023/05/22 10:43:57;;;;;;;13.00;11.93;;;34.90;69.40;;;;;;5031822;28;20417;-71
2023/05/22 10:46:22;;;;;;;12.73;11.83;;;36.50;67.80;;;;;;5032335;28;20666;-72
2023/05/22 10:48:51;;;;;;;13.17;12.17;;;38.20;53.90;;;;;;5031815;28;20429;-72
2023/05/22 10:51:21;;;;;;;12.37;11.47;;;39.10;50.80;;;;;;5032178;28;20171;-72
2023/05/22 10:53:54;;;;;;;12.97;12.07;;;39.80;49.20;;;;;;5032226;28;20413;-71
2023/05/22 10:56:20;;;;;;;13.63;12.63;;;40.50;46.60;;;;;;5032234;28;20421;-72
2023/05/22 10:58:56;;;;;;;12.20;11.40;;;40.90;45.10;;;;;;5031626;28;20976;-72
2023/05/22 11:01:24;;;;;;;13.37;12.37;;;40.90;44.70;;;;;;5032063;28;20177;-72
2023/05/22 11:04:00;;;;;;;12.30;11.40;;;41.60;43.70;;;;;;5031987;28;20420;-72
2023/05/22 11:06:42;;;;;;;11.73;10.80;;;41.80;42.30;;;;;;5031784;28;20443;-72
2023/05/22 11:09:27;;;;;;;13.33;12.40;;;41.50;42.00;;;;;;5045219;22;20432;-66
2023/05/22 11:12:11;;;;;;;12.93;11.93;;;42.20;41.70;;;;;;5012001;28;20463;-66
2023/05/22 11:14:37;;;;;;;11.43;10.60;;;42.80;40.90;;;;;;5012214;28;20926;-66
2023/05/22 11:17:05;;;;;;;12.10;11.20;;;41.50;40.60;;;;;;5012186;28;20445;-66
2023/05/22 11:19:30;;;;;;;13.13;11.87;;;42.30;40.10;;;;;;5011811;28;20195;-66
2023/05/22 11:22:00;;;;;;;13.07;12.00;;;42.30;39.90;;;;;;5012202;28;20417;-66
2023/05/22 11:24:31;;;;;;;11.97;11.17;;;43.00;39.10;;;;;;5012170;28;20190;-66
2023/05/22 11:27:16;;;;;;;12.83;11.77;;;43.30;38.40;;;;;;5012016;28;20834;-67
2023/05/22 11:29:43;;;;;;;13.83;12.67;;;43.50;37.60;;;;;;5011619;28;20473;-65
2023/05/22 11:32:14;;;;;;;12.63;11.73;;;43.70;37.00;;;;;;5012007;28;21133;-66
2023/05/22 11:34:39;;;;;;;12.87;11.97;;;43.40;35.80;;;;;;5012186;28;20418;-67
2023/05/22 11:37:05;;;;;;;11.97;10.93;;;42.70;37.20;;;;;;5012110;28;20430;-65
2023/05/22 11:39:31;;;;;;;11.63;10.63;;;43.40;36.40;;;;;;5011559;28;20195;-66
2023/05/22 11:41:57;;;;;;;11.67;10.97;;;43.10;37.00;;;;;;5011968;28;20179;-66
2023/05/22 11:44:25;;;;;;;11.97;10.97;;;43.70;36.20;;;;;;5010570;28;20923;-67
2023/05/22 11:46:50;;;;;;;12.30;11.30;;;43.10;36.30;;;;;;5011769;28;20195;-67
2023/05/22 11:49:16;;;;;;;12.30;11.40;;;40.70;36.20;;;;;;5011548;28;20513;-66
2023/05/22 11:51:47;;;;;;;11.73;10.93;;;37.90;39.00;;;;;;5011836;28;20163;-66
2023/05/22 11:54:13;;;;;;;11.97;10.97;;;38.70;39.10;;;;;;5011823;28;20175;-66
2023/05/22 11:56:38;;;;;;;11.87;11.10;;;40.00;38.80;;;;;;5014653;28;20464;-66
2023/05/22 11:59:04;;;;;;;11.60;10.70;;;42.20;37.90;;;;;;5015127;28;20179;-67
2023/05/22 12:01:30;;;;;;;11.93;10.83;;;42.90;36.70;;;;;;5015395;28;20198;-65
2023/05/22 12:03:56;;;;;;;10.67;10.00;;;43.60;36.20;;;;;;5015468;28;20185;-68
2023/05/22 12:06:22;;;;;;;12.27;11.23;;;44.00;35.40;;;;;;5015196;28;20422;-65
2023/05/22 12:08:47;;;;;;;11.30;10.50;;;43.70;34.90;;;;;;5014929;28;20181;-65
2023/05/22 12:11:13;;;;;;;11.50;10.77;;;44.00;34.70;;;;;;5015164;28;20274;-66
2023/05/22 12:13:38;;;;;;;12.47;11.37;;;43.50;34.90;;;;;;5015255;28;20198;-66
2023/05/22 12:16:18;;;;;;;11.30;10.50;;;44.50;34.10;;;;;;5015233;28;20551;-66
2023/05/22 12:18:43;;;;;;;11.60;10.63;;;44.90;34.20;;;;;;5014904;28;20243;-68
2023/05/22 12:21:10;;;;;;;11.40;10.70;;;44.70;33.80;;;;;;5015062;28;21008;-65
2023/05/22 12:23:46;;;;;;;12.10;11.20;;;43.80;34.00;;;;;;5015155;28;20210;-66
2023/05/22 12:26:11;;;;;;;10.83;10.20;;;44.10;33.80;;;;;;5013699;28;20773;-65
2023/05/22 12:28:38;;;;;;;12.90;11.63;;;44.10;33.60;;;;;;5014599;28;20500;-66